sensor_id;sensor_type;location;lat;lon;timestamp;P1;durP1;ratioP1;P2;durP2;ratioP2
9330;SDS011;4704;50.470;12.072;2022-12-29T00:01:57;1.05;;;0.80;;
9330;SDS011;4704;50.470;12.072;2022-12-29T00:04:27;0.70;;;0.70;;
9330;SDS011;4704;50.470;12.072;2022-12-29T00:06:54;1.00;;;1.00;;
9330;SDS011;4704;50.470;12.072;2022-12-29T00:09:22;1.15;;;1.00;;
9330;SDS011;4704;50.470;12.072;2022-12-29T00:11:50;1.00;;;0.90;;
9330;SDS011;4704;50.470;12.072;2022-12-29T00:14:17;0.80;;;0.70;;
9330;SDS011;4704;50.470;12.072;2022-12-29T00:17:03;0.88;;;0.85;;
9330;SDS011;4704;50.470;12.072;2022-12-29T00:19:32;0.80;;;0.80;;
9330;SDS011;4704;50.470;12.072;2022-12-29T00:22:17;0.80;;;0.80;;
9330;SDS011;4704;50.470;12.072;2022-12-29T00:25:03;1.25;;;0.90;;
9330;SDS011;4704;50.470;12.072;2022-12-29T00:27:48;1.00;;;0.90;;
9330;SDS011;4704;50.470;12.072;2022-12-29T00:30:33;0.90;;;0.80;;
9330;SDS011;4704;50.470;12.072;2022-12-29T00:33:20;0.88;;;0.88;;
9330;SDS011;4704;50.470;12.072;2022-12-29T00:36:08;0.90;;;0.80;;
9330;SDS011;4704;50.470;12.072;2022-12-29T00:38:37;0.90;;;0.90;;
9330;SDS011;4704;50.470;12.072;2022-12-29T00:41:22;0.80;;;0.80;;
9330;SDS011;4704;50.470;12.072;2022-12-29T00:44:08;0.80;;;0.80;;
9330;SDS011;4704;50.470;12.072;2022-12-29T00:46:37;0.80;;;0.80;;
9330;SDS011;4704;50.470;12.072;2022-12-29T00:49:05;0.80;;;0.80;;
9330;SDS011;4704;50.470;12.072;2022-12-29T00:51:51;0.70;;;0.70;;
9330;SDS011;4704;50.470;12.072;2022-12-29T00:54:19;0.80;;;0.80;;
9330;SDS011;4704;50.470;12.072;2022-12-29T00:56:47;1.00;;;0.90;;
9330;SDS011;4704;50.470;12.072;2022-12-29T00:59:15;0.98;;;0.95;;
9330;SDS011;4704;50.470;12.072;2022-12-29T01:01:43;0.80;;;0.80;;
9330;SDS011;4704;50.470;12.072;2022-12-29T01:04:11;0.93;;;0.90;;
9330;SDS011;4704;50.470;12.072;2022-12-29T01:06:39;0.70;;;0.70;;
9330;SDS011;4704;50.470;12.072;2022-12-29T01:09:09;0.80;;;0.80;;
9330;SDS011;4704;50.470;12.072;2022-12-29T01:11:54;1.02;;;0.95;;
9330;SDS011;4704;50.470;12.072;2022-12-29T01:14:22;0.70;;;0.70;;
9330;SDS011;4704;50.470;12.072;2022-12-29T01:16:50;0.60;;;0.60;;
9330;SDS011;4704;50.470;12.072;2022-12-29T01:19:18;1.08;;;1.00;;
9330;SDS011;4704;50.470;12.072;2022-12-29T01:21:46;0.75;;;0.75;;
9330;SDS011;4704;50.470;12.072;2022-12-29T01:24:16;0.93;;;0.90;;
9330;SDS011;4704;50.470;12.072;2022-12-29T01:26:44;0.82;;;0.82;;
9330;SDS011;4704;50.470;12.072;2022-12-29T01:29:12;0.80;;;0.80;;
9330;SDS011;4704;50.470;12.072;2022-12-29T01:31:40;0.80;;;0.80;;
9330;SDS011;4704;50.470;12.072;2022-12-29T01:34:08;0.60;;;0.60;;
9330;SDS011;4704;50.470;12.072;2022-12-29T01:36:35;0.93;;;0.80;;
9330;SDS011;4704;50.470;12.072;2022-12-29T01:39:03;0.80;;;0.80;;
9330;SDS011;4704;50.470;12.072;2022-12-29T01:41:32;1.00;;;0.90;;
9330;SDS011;4704;50.470;12.072;2022-12-29T01:44:00;0.90;;;0.90;;
9330;SDS011;4704;50.470;12.072;2022-12-29T01:46:29;1.23;;;0.70;;
9330;SDS011;4704;50.470;12.072;2022-12-29T01:48:59;0.73;;;0.70;;
9330;SDS011;4704;50.470;12.072;2022-12-29T01:51:28;0.70;;;0.70;;
9330;SDS011;4704;50.470;12.072;2022-12-29T01:53:57;0.90;;;0.90;;
9330;SDS011;4704;50.470;12.072;2022-12-29T01:56:26;0.82;;;0.82;;
9330;SDS011;4704;50.470;12.072;2022-12-29T01:58:55;0.85;;;0.85;;
9330;SDS011;4704;50.470;12.072;2022-12-29T02:01:26;0.80;;;0.80;;
9330;SDS011;4704;50.470;12.072;2022-12-29T02:03:53;0.90;;;0.90;;
9330;SDS011;4704;50.470;12.072;2022-12-29T02:06:22;0.90;;;0.90;;
9330;SDS011;4704;50.470;12.072;2022-12-29T02:08:52;0.82;;;0.82;;
9330;SDS011;4704;50.470;12.072;2022-12-29T02:11:20;1.15;;;0.90;;
9330;SDS011;4704;50.470;12.072;2022-12-29T02:13:49;0.77;;;0.77;;
9330;SDS011;4704;50.470;12.072;2022-12-29T02:16:25;1.02;;;0.93;;
9330;SDS011;4704;50.470;12.072;2022-12-29T02:19:00;0.80;;;0.80;;
9330;SDS011;4704;50.470;12.072;2022-12-29T02:27:31;0.90;;;0.70;;
9330;SDS011;4704;50.470;12.072;2022-12-29T02:30:11;0.70;;;0.70;;
9330;SDS011;4704;50.470;12.072;2022-12-29T02:32:45;0.68;;;0.60;;
9330;SDS011;4704;50.470;12.072;2022-12-29T02:35:15;0.70;;;0.70;;
9330;SDS011;4704;50.470;12.072;2022-12-29T02:37:49;0.70;;;0.70;;
9330;SDS011;4704;50.470;12.072;2022-12-29T02:40:22;0.82;;;0.75;;
9330;SDS011;4704;50.470;12.072;2022-12-29T02:42:56;0.70;;;0.70;;
9330;SDS011;4704;50.470;12.072;2022-12-29T02:45:25;0.60;;;0.60;;
9330;SDS011;4704;50.470;12.072;2022-12-29T02:47:56;0.60;;;0.60;;
9330;SDS011;4704;50.470;12.072;2022-12-29T02:50:25;0.80;;;0.80;;
9330;SDS011;4704;50.470;12.072;2022-12-29T02:52:56;0.80;;;0.80;;
9330;SDS011;4704;50.470;12.072;2022-12-29T02:55:24;0.80;;;0.80;;
9330;SDS011;4704;50.470;12.072;2022-12-29T02:58:05;0.65;;;0.65;;
9330;SDS011;4704;50.470;12.072;2022-12-29T03:00:33;0.75;;;0.75;;
9330;SDS011;4704;50.470;12.072;2022-12-29T03:03:14;0.80;;;0.80;;
9330;SDS011;4704;50.470;12.072;2022-12-29T03:06:06;0.70;;;0.70;;
9330;SDS011;4704;50.470;12.072;2022-12-29T03:08:39;1.15;;;0.80;;
9330;SDS011;4704;50.470;12.072;2022-12-29T03:11:11;0.70;;;0.70;;
9330;SDS011;4704;50.470;12.072;2022-12-29T03:13:54;0.60;;;0.60;;
9330;SDS011;4704;50.470;12.072;2022-12-29T03:16:43;0.80;;;0.80;;
9330;SDS011;4704;50.470;12.072;2022-12-29T03:19:14;0.75;;;0.70;;
9330;SDS011;4704;50.470;12.072;2022-12-29T03:21:44;0.70;;;0.70;;
9330;SDS011;4704;50.470;12.072;2022-12-29T03:24:31;0.80;;;0.80;;
9330;SDS011;4704;50.470;12.072;2022-12-29T03:27:00;0.70;;;0.70;;
9330;SDS011;4704;50.470;12.072;2022-12-29T03:29:31;0.82;;;0.82;;
9330;SDS011;4704;50.470;12.072;2022-12-29T03:32:01;0.95;;;0.95;;
9330;SDS011;4704;50.470;12.072;2022-12-29T03:34:31;0.70;;;0.70;;
9330;SDS011;4704;50.470;12.072;2022-12-29T03:37:01;1.27;;;0.73;;
9330;SDS011;4704;50.470;12.072;2022-12-29T03:39:30;0.85;;;0.80;;
9330;SDS011;4704;50.470;12.072;2022-12-29T03:41:59;0.90;;;0.70;;
9330;SDS011;4704;50.470;12.072;2022-12-29T03:44:31;0.90;;;0.80;;
9330;SDS011;4704;50.470;12.072;2022-12-29T03:46:59;0.93;;;0.60;;
9330;SDS011;4704;50.470;12.072;2022-12-29T03:49:27;0.60;;;0.60;;
9330;SDS011;4704;50.470;12.072;2022-12-29T03:51:56;0.68;;;0.60;;
9330;SDS011;4704;50.470;12.072;2022-12-29T03:54:24;0.85;;;0.77;;
9330;SDS011;4704;50.470;12.072;2022-12-29T03:56:52;0.60;;;0.60;;
9330;SDS011;4704;50.470;12.072;2022-12-29T03:59:20;0.70;;;0.70;;
9330;SDS011;4704;50.470;12.072;2022-12-29T04:01:47;0.60;;;0.60;;
9330;SDS011;4704;50.470;12.072;2022-12-29T04:04:15;0.70;;;0.70;;
9330;SDS011;4704;50.470;12.072;2022-12-29T04:06:43;0.70;;;0.70;;
9330;SDS011;4704;50.470;12.072;2022-12-29T04:09:12;0.82;;;0.82;;
9330;SDS011;4704;50.470;12.072;2022-12-29T04:11:40;0.80;;;0.80;;
9330;SDS011;4704;50.470;12.072;2022-12-29T04:14:08;0.60;;;0.60;;
9330;SDS011;4704;50.470;12.072;2022-12-29T04:16:36;0.70;;;0.70;;
9330;SDS011;4704;50.470;12.072;2022-12-29T04:19:06;0.70;;;0.70;;
9330;SDS011;4704;50.470;12.072;2022-12-29T04:21:33;0.73;;;0.73;;
9330;SDS011;4704;50.470;12.072;2022-12-29T04:24:01;0.75;;;0.70;;
9330;SDS011;4704;50.470;12.072;2022-12-29T04:26:33;0.93;;;0.70;;
9330;SDS011;4704;50.470;12.072;2022-12-29T04:29:00;0.80;;;0.80;;
9330;SDS011;4704;50.470;12.072;2022-12-29T04:31:28;0.50;;;0.50;;
9330;SDS011;4704;50.470;12.072;2022-12-29T04:33:56;1.20;;;0.80;;
9330;SDS011;4704;50.470;12.072;2022-12-29T04:36:25;0.90;;;0.90;;
9330;SDS011;4704;50.470;12.072;2022-12-29T04:38:53;0.88;;;0.88;;
9330;SDS011;4704;50.470;12.072;2022-12-29T04:41:20;0.80;;;0.70;;
9330;SDS011;4704;50.470;12.072;2022-12-29T04:43:50;0.93;;;0.93;;
9330;SDS011;4704;50.470;12.072;2022-12-29T04:46:17;0.93;;;0.93;;
9330;SDS011;4704;50.470;12.072;2022-12-29T04:48:45;0.80;;;0.80;;
9330;SDS011;4704;50.470;12.072;2022-12-29T04:51:13;0.82;;;0.82;;
9330;SDS011;4704;50.470;12.072;2022-12-29T04:53:41;0.80;;;0.73;;
9330;SDS011;4704;50.470;12.072;2022-12-29T04:56:08;0.70;;;0.70;;
9330;SDS011;4704;50.470;12.072;2022-12-29T04:58:36;0.95;;;0.90;;
9330;SDS011;4704;50.470;12.072;2022-12-29T05:01:05;0.75;;;0.75;;
9330;SDS011;4704;50.470;12.072;2022-12-29T05:03:32;0.80;;;0.77;;
9330;SDS011;4704;50.470;12.072;2022-12-29T05:06:00;0.70;;;0.70;;
9330;SDS011;4704;50.470;12.072;2022-12-29T05:08:28;0.95;;;0.70;;
9330;SDS011;4704;50.470;12.072;2022-12-29T05:10:55;1.00;;;0.82;;
9330;SDS011;4704;50.470;12.072;2022-12-29T05:13:23;0.82;;;0.82;;
9330;SDS011;4704;50.470;12.072;2022-12-29T05:15:50;0.68;;;0.68;;
9330;SDS011;4704;50.470;12.072;2022-12-29T05:18:19;0.70;;;0.70;;
9330;SDS011;4704;50.470;12.072;2022-12-29T05:20:47;0.80;;;0.80;;
9330;SDS011;4704;50.470;12.072;2022-12-29T05:23:15;1.05;;;0.85;;
9330;SDS011;4704;50.470;12.072;2022-12-29T05:25:42;0.90;;;0.85;;
9330;SDS011;4704;50.470;12.072;2022-12-29T05:28:11;1.48;;;0.90;;
9330;SDS011;4704;50.470;12.072;2022-12-29T05:30:38;0.70;;;0.70;;
9330;SDS011;4704;50.470;12.072;2022-12-29T05:33:06;1.02;;;0.80;;
9330;SDS011;4704;50.470;12.072;2022-12-29T05:35:38;0.70;;;0.70;;
9330;SDS011;4704;50.470;12.072;2022-12-29T05:38:05;0.70;;;0.70;;
9330;SDS011;4704;50.470;12.072;2022-12-29T05:40:33;0.70;;;0.70;;
9330;SDS011;4704;50.470;12.072;2022-12-29T05:43:00;0.98;;;0.90;;
9330;SDS011;4704;50.470;12.072;2022-12-29T05:45:27;0.90;;;0.90;;
9330;SDS011;4704;50.470;12.072;2022-12-29T05:47:55;1.02;;;0.85;;
9330;SDS011;4704;50.470;12.072;2022-12-29T05:50:23;1.08;;;0.70;;
9330;SDS011;4704;50.470;12.072;2022-12-29T05:52:51;1.10;;;1.00;;
9330;SDS011;4704;50.470;12.072;2022-12-29T05:55:19;0.90;;;0.80;;
9330;SDS011;4704;50.470;12.072;2022-12-29T05:57:46;0.65;;;0.65;;
9330;SDS011;4704;50.470;12.072;2022-12-29T06:00:14;0.95;;;0.90;;
9330;SDS011;4704;50.470;12.072;2022-12-29T06:02:42;0.68;;;0.68;;
9330;SDS011;4704;50.470;12.072;2022-12-29T06:05:09;0.80;;;0.80;;
9330;SDS011;4704;50.470;12.072;2022-12-29T06:07:37;0.80;;;0.80;;
9330;SDS011;4704;50.470;12.072;2022-12-29T06:10:06;0.80;;;0.80;;
9330;SDS011;4704;50.470;12.072;2022-12-29T06:12:34;0.70;;;0.70;;
9330;SDS011;4704;50.470;12.072;2022-12-29T06:15:01;0.65;;;0.60;;
9330;SDS011;4704;50.470;12.072;2022-12-29T06:17:29;0.80;;;0.80;;
9330;SDS011;4704;50.470;12.072;2022-12-29T06:19:56;0.70;;;0.70;;
9330;SDS011;4704;50.470;12.072;2022-12-29T06:22:24;0.60;;;0.60;;
9330;SDS011;4704;50.470;12.072;2022-12-29T06:24:51;0.75;;;0.75;;
9330;SDS011;4704;50.470;12.072;2022-12-29T06:27:20;0.65;;;0.65;;
9330;SDS011;4704;50.470;12.072;2022-12-29T06:29:47;0.70;;;0.70;;
9330;SDS011;4704;50.470;12.072;2022-12-29T06:32:15;0.75;;;0.75;;
9330;SDS011;4704;50.470;12.072;2022-12-29T06:34:42;0.70;;;0.70;;
9330;SDS011;4704;50.470;12.072;2022-12-29T06:37:10;0.77;;;0.70;;
9330;SDS011;4704;50.470;12.072;2022-12-29T06:39:38;0.70;;;0.70;;
9330;SDS011;4704;50.470;12.072;2022-12-29T06:42:06;0.75;;;0.68;;
9330;SDS011;4704;50.470;12.072;2022-12-29T06:44:34;0.80;;;0.80;;
9330;SDS011;4704;50.470;12.072;2022-12-29T06:47:02;0.60;;;0.60;;
9330;SDS011;4704;50.470;12.072;2022-12-29T06:49:29;0.70;;;0.70;;
9330;SDS011;4704;50.470;12.072;2022-12-29T06:51:57;0.70;;;0.70;;
9330;SDS011;4704;50.470;12.072;2022-12-29T06:54:25;0.60;;;0.60;;
9330;SDS011;4704;50.470;12.072;2022-12-29T06:56:53;0.90;;;0.70;;
9330;SDS011;4704;50.470;12.072;2022-12-29T06:59:20;0.60;;;0.60;;
9330;SDS011;4704;50.470;12.072;2022-12-29T07:01:49;0.85;;;0.80;;
9330;SDS011;4704;50.470;12.072;2022-12-29T07:04:17;0.65;;;0.65;;
9330;SDS011;4704;50.470;12.072;2022-12-29T07:06:44;0.70;;;0.70;;
9330;SDS011;4704;50.470;12.072;2022-12-29T07:09:11;0.70;;;0.70;;
9330;SDS011;4704;50.470;12.072;2022-12-29T07:11:39;0.60;;;0.60;;
9330;SDS011;4704;50.470;12.072;2022-12-29T07:14:06;0.70;;;0.70;;
9330;SDS011;4704;50.470;12.072;2022-12-29T07:16:34;0.63;;;0.63;;
9330;SDS011;4704;50.470;12.072;2022-12-29T07:19:03;0.60;;;0.60;;
9330;SDS011;4704;50.470;12.072;2022-12-29T07:21:31;0.80;;;0.70;;
9330;SDS011;4704;50.470;12.072;2022-12-29T07:23:58;0.70;;;0.57;;
9330;SDS011;4704;50.470;12.072;2022-12-29T07:26:26;0.68;;;0.68;;
9330;SDS011;4704;50.470;12.072;2022-12-29T07:28:53;0.70;;;0.70;;
9330;SDS011;4704;50.470;12.072;2022-12-29T07:31:22;0.70;;;0.70;;
9330;SDS011;4704;50.470;12.072;2022-12-29T07:33:49;0.70;;;0.70;;
9330;SDS011;4704;50.470;12.072;2022-12-29T07:36:18;2.72;;;0.80;;
9330;SDS011;4704;50.470;12.072;2022-12-29T07:38:45;0.80;;;0.80;;
9330;SDS011;4704;50.470;12.072;2022-12-29T07:41:13;0.70;;;0.68;;
9330;SDS011;4704;50.470;12.072;2022-12-29T07:43:40;0.60;;;0.60;;
9330;SDS011;4704;50.470;12.072;2022-12-29T07:46:08;0.70;;;0.70;;
9330;SDS011;4704;50.470;12.072;2022-12-29T07:48:35;0.70;;;0.70;;
9330;SDS011;4704;50.470;12.072;2022-12-29T07:51:03;1.42;;;0.80;;
9330;SDS011;4704;50.470;12.072;2022-12-29T07:53:31;1.00;;;0.70;;
9330;SDS011;4704;50.470;12.072;2022-12-29T07:55:59;0.63;;;0.63;;
9330;SDS011;4704;50.470;12.072;2022-12-29T07:58:26;0.70;;;0.70;;
9330;SDS011;4704;50.470;12.072;2022-12-29T08:00:54;0.63;;;0.60;;
9330;SDS011;4704;50.470;12.072;2022-12-29T08:03:21;0.70;;;0.70;;
9330;SDS011;4704;50.470;12.072;2022-12-29T08:05:50;0.70;;;0.70;;
9330;SDS011;4704;50.470;12.072;2022-12-29T08:08:17;0.90;;;0.60;;
9330;SDS011;4704;50.470;12.072;2022-12-29T08:10:46;0.75;;;0.75;;
9330;SDS011;4704;50.470;12.072;2022-12-29T08:13:14;0.70;;;0.70;;
9330;SDS011;4704;50.470;12.072;2022-12-29T08:15:41;0.60;;;0.60;;
9330;SDS011;4704;50.470;12.072;2022-12-29T08:18:08;0.68;;;0.68;;
9330;SDS011;4704;50.470;12.072;2022-12-29T08:20:36;0.60;;;0.60;;
9330;SDS011;4704;50.470;12.072;2022-12-29T08:23:03;0.55;;;0.55;;
9330;SDS011;4704;50.470;12.072;2022-12-29T08:25:33;0.70;;;0.70;;
9330;SDS011;4704;50.470;12.072;2022-12-29T08:28:02;0.82;;;0.82;;
9330;SDS011;4704;50.470;12.072;2022-12-29T08:30:29;0.80;;;0.70;;
9330;SDS011;4704;50.470;12.072;2022-12-29T08:32:57;0.77;;;0.70;;
9330;SDS011;4704;50.470;12.072;2022-12-29T08:35:24;0.60;;;0.60;;
9330;SDS011;4704;50.470;12.072;2022-12-29T08:37:51;0.63;;;0.63;;
9330;SDS011;4704;50.470;12.072;2022-12-29T08:40:19;0.52;;;0.52;;
9330;SDS011;4704;50.470;12.072;2022-12-29T08:42:46;0.70;;;0.70;;
9330;SDS011;4704;50.470;12.072;2022-12-29T08:45:15;0.70;;;0.60;;
9330;SDS011;4704;50.470;12.072;2022-12-29T08:47:42;0.63;;;0.63;;
9330;SDS011;4704;50.470;12.072;2022-12-29T08:50:10;0.75;;;0.75;;
9330;SDS011;4704;50.470;12.072;2022-12-29T08:52:38;0.82;;;0.80;;
9330;SDS011;4704;50.470;12.072;2022-12-29T08:55:05;0.82;;;0.82;;
9330;SDS011;4704;50.470;12.072;2022-12-29T08:57:33;1.08;;;0.90;;
9330;SDS011;4704;50.470;12.072;2022-12-29T09:00:00;1.33;;;1.23;;
9330;SDS011;4704;50.470;12.072;2022-12-29T09:02:29;1.55;;;1.42;;
9330;SDS011;4704;50.470;12.072;2022-12-29T09:04:57;1.70;;;1.60;;
9330;SDS011;4704;50.470;12.072;2022-12-29T09:07:25;1.90;;;1.70;;
9330;SDS011;4704;50.470;12.072;2022-12-29T09:09:52;10.48;;;9.68;;
9330;SDS011;4704;50.470;12.072;2022-12-29T09:12:20;11.30;;;10.43;;
9330;SDS011;4704;50.470;12.072;2022-12-29T09:14:47;10.48;;;9.70;;
9330;SDS011;4704;50.470;12.072;2022-12-29T09:17:15;10.05;;;9.25;;
9330;SDS011;4704;50.470;12.072;2022-12-29T09:20:02;8.93;;;8.27;;
9330;SDS011;4704;50.470;12.072;2022-12-29T09:22:29;8.98;;;8.27;;
9330;SDS011;4704;50.470;12.072;2022-12-29T09:24:57;8.43;;;7.82;;
9330;SDS011;4704;50.470;12.072;2022-12-29T09:27:24;8.13;;;7.53;;
9330;SDS011;4704;50.470;12.072;2022-12-29T09:29:52;9.00;;;8.30;;
9330;SDS011;4704;50.470;12.072;2022-12-29T09:32:20;8.07;;;7.47;;
9330;SDS011;4704;50.470;12.072;2022-12-29T09:34:47;7.80;;;7.20;;
9330;SDS011;4704;50.470;12.072;2022-12-29T09:37:16;8.48;;;7.78;;
9330;SDS011;4704;50.470;12.072;2022-12-29T09:39:43;7.93;;;7.32;;
9330;SDS011;4704;50.470;12.072;2022-12-29T09:42:12;7.20;;;6.70;;
9330;SDS011;4704;50.470;12.072;2022-12-29T09:44:48;7.40;;;6.80;;
9330;SDS011;4704;50.470;12.072;2022-12-29T09:47:17;7.22;;;6.63;;
9330;SDS011;4704;50.470;12.072;2022-12-29T09:49:46;6.70;;;6.15;;
9330;SDS011;4704;50.470;12.072;2022-12-29T09:52:17;6.80;;;6.30;;
9330;SDS011;4704;50.470;12.072;2022-12-29T09:54:48;6.60;;;6.10;;
9330;SDS011;4704;50.470;12.072;2022-12-29T09:57:20;5.97;;;5.47;;
9330;SDS011;4704;50.470;12.072;2022-12-29T09:59:50;5.85;;;5.28;;
9330;SDS011;4704;50.470;12.072;2022-12-29T10:02:24;5.47;;;5.07;;
9330;SDS011;4704;50.470;12.072;2022-12-29T10:04:54;5.80;;;5.38;;
9330;SDS011;4704;50.470;12.072;2022-12-29T10:07:26;5.93;;;5.43;;
9330;SDS011;4704;50.470;12.072;2022-12-29T10:09:56;5.90;;;5.40;;
9330;SDS011;4704;50.470;12.072;2022-12-29T10:12:31;5.32;;;4.93;;
9330;SDS011;4704;50.470;12.072;2022-12-29T10:15:04;5.32;;;4.85;;
9330;SDS011;4704;50.470;12.072;2022-12-29T10:17:35;5.20;;;4.80;;
9330;SDS011;4704;50.470;12.072;2022-12-29T10:20:18;5.28;;;4.88;;
9330;SDS011;4704;50.470;12.072;2022-12-29T10:22:53;4.70;;;4.40;;
9330;SDS011;4704;50.470;12.072;2022-12-29T10:25:25;4.78;;;4.38;;
9330;SDS011;4704;50.470;12.072;2022-12-29T10:27:53;4.60;;;4.20;;
9330;SDS011;4704;50.470;12.072;2022-12-29T10:30:22;4.32;;;4.03;;
9330;SDS011;4704;50.470;12.072;2022-12-29T10:32:50;5.60;;;5.10;;
9330;SDS011;4704;50.470;12.072;2022-12-29T10:35:20;5.20;;;4.80;;
9330;SDS011;4704;50.470;12.072;2022-12-29T10:37:49;4.80;;;4.40;;
9330;SDS011;4704;50.470;12.072;2022-12-29T10:40:22;4.30;;;4.00;;
9330;SDS011;4704;50.470;12.072;2022-12-29T10:42:52;4.60;;;4.25;;
9330;SDS011;4704;50.470;12.072;2022-12-29T10:45:20;4.57;;;4.18;;
9330;SDS011;4704;50.470;12.072;2022-12-29T10:47:51;4.63;;;4.18;;
9330;SDS011;4704;50.470;12.072;2022-12-29T10:50:20;4.30;;;4.00;;
9330;SDS011;4704;50.470;12.072;2022-12-29T10:52:48;3.92;;;3.58;;
9330;SDS011;4704;50.470;12.072;2022-12-29T10:55:17;4.18;;;3.78;;
9330;SDS011;4704;50.470;12.072;2022-12-29T10:57:47;3.72;;;3.42;;
9330;SDS011;4704;50.470;12.072;2022-12-29T11:00:15;3.60;;;3.35;;
9330;SDS011;4704;50.470;12.072;2022-12-29T11:05:35;3.70;;;3.40;;
9330;SDS011;4704;50.470;12.072;2022-12-29T11:08:04;3.88;;;3.58;;
9330;SDS011;4704;50.470;12.072;2022-12-29T11:10:37;3.50;;;3.20;;
9330;SDS011;4704;50.470;12.072;2022-12-29T11:13:12;3.42;;;3.13;;
9330;SDS011;4704;50.470;12.072;2022-12-29T11:15:40;3.60;;;3.30;;
9330;SDS011;4704;50.470;12.072;2022-12-29T11:18:17;3.25;;;3.05;;
9330;SDS011;4704;50.470;12.072;2022-12-29T11:20:45;3.10;;;2.90;;
9330;SDS011;4704;50.470;12.072;2022-12-29T11:23:26;2.80;;;2.60;;
9330;SDS011;4704;50.470;12.072;2022-12-29T11:26:06;4.13;;;2.80;;
9330;SDS011;4704;50.470;12.072;2022-12-29T11:28:35;3.15;;;2.85;;
9330;SDS011;4704;50.470;12.072;2022-12-29T11:31:03;3.00;;;2.80;;
9330;SDS011;4704;50.470;12.072;2022-12-29T11:33:32;3.40;;;2.40;;
9330;SDS011;4704;50.470;12.072;2022-12-29T11:36:01;2.67;;;2.40;;
9330;SDS011;4704;50.470;12.072;2022-12-29T11:38:30;2.88;;;2.67;;
9330;SDS011;4704;50.470;12.072;2022-12-29T11:40:59;2.63;;;2.42;;
9330;SDS011;4704;50.470;12.072;2022-12-29T11:43:29;2.85;;;2.60;;
9330;SDS011;4704;50.470;12.072;2022-12-29T11:46:00;3.55;;;2.60;;
9330;SDS011;4704;50.470;12.072;2022-12-29T11:48:29;2.28;;;2.08;;
9330;SDS011;4704;50.470;12.072;2022-12-29T11:50:57;3.13;;;2.22;;
9330;SDS011;4704;50.470;12.072;2022-12-29T11:53:25;2.30;;;2.10;;
9330;SDS011;4704;50.470;12.072;2022-12-29T11:55:54;2.42;;;2.22;;
9330;SDS011;4704;50.470;12.072;2022-12-29T11:58:28;2.40;;;2.20;;
9330;SDS011;4704;50.470;12.072;2022-12-29T12:01:00;2.65;;;2.33;;
9330;SDS011;4704;50.470;12.072;2022-12-29T12:03:29;2.10;;;1.90;;
9330;SDS011;4704;50.470;12.072;2022-12-29T12:05:58;2.40;;;2.20;;
9330;SDS011;4704;50.470;12.072;2022-12-29T12:08:30;2.33;;;2.08;;
9330;SDS011;4704;50.470;12.072;2022-12-29T12:10:59;2.50;;;2.30;;
9330;SDS011;4704;50.470;12.072;2022-12-29T12:13:32;2.42;;;2.22;;
9330;SDS011;4704;50.470;12.072;2022-12-29T12:16:04;2.20;;;2.00;;
9330;SDS011;4704;50.470;12.072;2022-12-29T12:18:36;2.53;;;2.33;;
9330;SDS011;4704;50.470;12.072;2022-12-29T12:21:06;2.38;;;2.22;;
9330;SDS011;4704;50.470;12.072;2022-12-29T12:23:40;2.53;;;2.05;;
9330;SDS011;4704;50.470;12.072;2022-12-29T12:26:11;2.00;;;1.85;;
9330;SDS011;4704;50.470;12.072;2022-12-29T12:28:41;2.80;;;2.10;;
9330;SDS011;4704;50.470;12.072;2022-12-29T12:31:13;2.30;;;1.98;;
9330;SDS011;4704;50.470;12.072;2022-12-29T12:33:42;2.00;;;1.75;;
9330;SDS011;4704;50.470;12.072;2022-12-29T12:36:21;3.75;;;2.15;;
9330;SDS011;4704;50.470;12.072;2022-12-29T12:38:53;3.35;;;2.10;;
9330;SDS011;4704;50.470;12.072;2022-12-29T12:41:24;3.05;;;2.10;;
9330;SDS011;4704;50.470;12.072;2022-12-29T12:43:54;2.33;;;1.83;;
9330;SDS011;4704;50.470;12.072;2022-12-29T12:52:01;3.55;;;2.05;;
9330;SDS011;4704;50.470;12.072;2022-12-29T12:54:39;2.88;;;2.22;;
9330;SDS011;4704;50.470;12.072;2022-12-29T12:57:12;2.20;;;2.03;;
9330;SDS011;4704;50.470;12.072;2022-12-29T12:59:45;3.85;;;2.10;;
9330;SDS011;4704;50.470;12.072;2022-12-29T13:02:21;2.45;;;1.85;;
9330;SDS011;4704;50.470;12.072;2022-12-29T13:04:57;2.28;;;2.00;;
9330;SDS011;4704;50.470;12.072;2022-12-29T13:07:34;2.67;;;2.10;;
9330;SDS011;4704;50.470;12.072;2022-12-29T13:10:13;2.97;;;2.17;;
9330;SDS011;4704;50.470;12.072;2022-12-29T13:12:46;2.47;;;1.92;;
9330;SDS011;4704;50.470;12.072;2022-12-29T13:15:18;1.67;;;1.50;;
9330;SDS011;4704;50.470;12.072;2022-12-29T13:17:49;2.67;;;1.90;;
9330;SDS011;4704;50.470;12.072;2022-12-29T13:20:22;3.15;;;2.00;;
9330;SDS011;4704;50.470;12.072;2022-12-29T13:22:55;2.40;;;1.92;;
9330;SDS011;4704;50.470;12.072;2022-12-29T13:25:27;2.17;;;1.80;;
9330;SDS011;4704;50.470;12.072;2022-12-29T13:27:57;2.20;;;1.65;;
9330;SDS011;4704;50.470;12.072;2022-12-29T13:30:28;2.13;;;1.63;;
9330;SDS011;4704;50.470;12.072;2022-12-29T13:32:59;2.10;;;1.70;;
9330;SDS011;4704;50.470;12.072;2022-12-29T13:35:35;2.17;;;1.58;;
9330;SDS011;4704;50.470;12.072;2022-12-29T13:38:10;1.88;;;1.65;;
9330;SDS011;4704;50.470;12.072;2022-12-29T13:40:39;2.45;;;1.80;;
9330;SDS011;4704;50.470;12.072;2022-12-29T13:43:07;1.63;;;1.52;;
9330;SDS011;4704;50.470;12.072;2022-12-29T13:45:35;3.10;;;1.70;;
9330;SDS011;4704;50.470;12.072;2022-12-29T13:48:05;1.73;;;1.60;;
9330;SDS011;4704;50.470;12.072;2022-12-29T13:50:35;2.20;;;1.60;;
9330;SDS011;4704;50.470;12.072;2022-12-29T13:53:06;2.58;;;1.70;;
9330;SDS011;4704;50.470;12.072;2022-12-29T13:55:40;2.22;;;1.73;;
9330;SDS011;4704;50.470;12.072;2022-12-29T13:58:12;2.95;;;1.67;;
9330;SDS011;4704;50.470;12.072;2022-12-29T14:00:44;1.48;;;1.38;;
9330;SDS011;4704;50.470;12.072;2022-12-29T14:03:30;2.55;;;1.60;;
9330;SDS011;4704;50.470;12.072;2022-12-29T14:06:04;1.73;;;1.33;;
9330;SDS011;4704;50.470;12.072;2022-12-29T14:08:33;2.45;;;1.48;;
9330;SDS011;4704;50.470;12.072;2022-12-29T14:11:05;1.55;;;1.35;;
9330;SDS011;4704;50.470;12.072;2022-12-29T14:13:36;1.50;;;1.40;;
9330;SDS011;4704;50.470;12.072;2022-12-29T14:16:05;2.25;;;1.48;;
9330;SDS011;4704;50.470;12.072;2022-12-29T14:18:32;1.92;;;1.25;;
9330;SDS011;4704;50.470;12.072;2022-12-29T14:21:02;2.53;;;1.40;;
9330;SDS011;4704;50.470;12.072;2022-12-29T14:23:35;1.70;;;1.60;;
9330;SDS011;4704;50.470;12.072;2022-12-29T14:26:14;1.20;;;1.10;;
9330;SDS011;4704;50.470;12.072;2022-12-29T14:28:43;1.67;;;1.27;;
9330;SDS011;4704;50.470;12.072;2022-12-29T14:34:27;1.88;;;1.38;;
9330;SDS011;4704;50.470;12.072;2022-12-29T14:36:55;1.20;;;1.10;;
9330;SDS011;4704;50.470;12.072;2022-12-29T14:39:29;1.40;;;1.30;;
9330;SDS011;4704;50.470;12.072;2022-12-29T14:42:00;1.52;;;1.15;;
9330;SDS011;4704;50.470;12.072;2022-12-29T14:44:28;1.20;;;1.10;;
9330;SDS011;4704;50.470;12.072;2022-12-29T14:46:57;1.48;;;1.02;;
9330;SDS011;4704;50.470;12.072;2022-12-29T14:49:25;1.23;;;1.08;;
9330;SDS011;4704;50.470;12.072;2022-12-29T14:51:55;1.23;;;1.13;;
9330;SDS011;4704;50.470;12.072;2022-12-29T14:54:41;1.20;;;1.10;;
9330;SDS011;4704;50.470;12.072;2022-12-29T14:57:14;1.20;;;1.10;;
9330;SDS011;4704;50.470;12.072;2022-12-29T14:59:44;1.83;;;1.23;;
9330;SDS011;4704;50.470;12.072;2022-12-29T15:02:13;1.00;;;0.90;;
9330;SDS011;4704;50.470;12.072;2022-12-29T15:04:42;1.02;;;0.93;;
9330;SDS011;4704;50.470;12.072;2022-12-29T15:07:10;1.08;;;0.98;;
9330;SDS011;4704;50.470;12.072;2022-12-29T15:09:40;1.38;;;1.23;;
9330;SDS011;4704;50.470;12.072;2022-12-29T15:12:17;1.40;;;1.00;;
9330;SDS011;4704;50.470;12.072;2022-12-29T15:14:51;1.50;;;1.00;;
9330;SDS011;4704;50.470;12.072;2022-12-29T15:17:25;1.35;;;1.05;;
9330;SDS011;4704;50.470;12.072;2022-12-29T15:19:53;1.05;;;0.95;;
9330;SDS011;4704;50.470;12.072;2022-12-29T15:22:21;1.00;;;0.90;;
9330;SDS011;4704;50.470;12.072;2022-12-29T15:24:49;1.33;;;1.20;;
9330;SDS011;4704;50.470;12.072;2022-12-29T15:27:21;1.20;;;1.02;;
9330;SDS011;4704;50.470;12.072;2022-12-29T15:29:55;1.40;;;1.05;;
9330;SDS011;4704;50.470;12.072;2022-12-29T15:32:23;1.00;;;0.88;;
9330;SDS011;4704;50.470;12.072;2022-12-29T15:34:52;1.08;;;0.98;;
9330;SDS011;4704;50.470;12.072;2022-12-29T15:37:21;1.10;;;0.93;;